首页
METAR-TAF:

METAR-TAF

机场 :

坎皮纳斯, 圣保罗州, 巴西

纬度: 23-00S, 经度: 047-08W, 海拔: 661米

当前天气观测

该预报发布于16分钟前的11:00 UTC
风速11节,风向东转东南
温度 15°C
湿度 59%
气压 1025 hPa
能见度10公里或以上
1500米以下无云,无积雨云

METAR: SBKP 231100Z 12011KT CAVOK 15/07 Q1025

时间: 08:16 (11:16 UTC)

预报

该预报发布于6小时和46分钟前的04:30 UTC
预报有效从23日的 06点(UTC)到 24日的 06点(UTC)
风速8节,风向东转东南
能见度10公里或以上
1500米以下无云,无积雨云
几率 30% :
短暂存在
从 23日的 09点(UTC)到 23日的 11点(UTC)
能見度: 5000
轻雾
成为
从 23日的 19点(UTC)到 23日的 21点(UTC)
风速7节,风向东南

TAF: SBKP 230430Z 2306/2406 12008KT CAVOK TN13/2309Z TX28/2318Z PROB30 TEMPO 2309/2311 5000 BR NSC BECMG 2319/2321 14007KT RMK PGQ

超过4000个机场的气象观测和天气预报(METAR&TAF报告)。

可查询的气象台以黄色和红色小点在地图上表示。

将鼠标移到小点上方,可查看气象台名称。

然后点击查看天气观测和预报。

如需切换地图:点击带黑十字的绿色按钮放大地图;点击带横线的绿色按钮缩小地图;或者点击绿色箭头查看邻近地区的地图。


METAR-TAF: